Time;durP1;ratioP1;P1;durP2;ratioP2;P2;SDS_P1;SDS_P2;PMS_P1;PMS_P2;Temp;Humidity;BMP_temperature;BMP_pressure;BME280_temperature;BME280_humidity;BME280_pressure;Samples;Min_cycle;Max_cycle;Signal;HPM_P1;HPM_P2
2021/04/22 00:00:30;;;;;;;10.93;9.10;;;9.90;99.90;;;;;;5056322;28;20266;-51
2021/04/22 00:02:55;;;;;;;9.67;8.67;;;9.90;99.90;;;;;;5055332;28;20195;-52
2021/04/22 00:05:34;;;;;;;10.10;8.93;;;9.90;99.90;;;;;;5071297;28;20672;-49
2021/04/22 00:08:01;;;;;;;9.93;8.63;;;9.80;99.90;;;;;;5064325;28;20163;-53
2021/04/22 00:10:47;;;;;;;8.80;7.97;;;9.80;99.90;;;;;;5038467;28;20182;-48
2021/04/22 00:13:16;;;;;;;9.80;8.53;;;9.80;99.90;;;;;;5057360;28;20636;-53
2021/04/22 00:15:42;;;;;;;12.47;8.33;;;9.70;99.90;;;;;;5055338;28;20207;-56
2021/04/22 00:18:10;;;;;;;9.20;8.27;;;9.70;99.90;;;;;;5056206;28;20266;-56
2021/04/22 00:20:36;;;;;;;10.27;8.00;;;9.60;99.90;;;;;;5054708;28;20179;-57
2021/04/22 00:23:05;;;;;;;10.97;8.67;;;9.70;99.90;;;;;;5055570;28;20578;-49
2021/04/22 00:25:31;;;;;;;9.03;8.13;;;9.60;99.90;;;;;;5055277;28;20266;-52
2021/04/22 00:28:03;;;;;;;8.87;7.97;;;9.60;99.90;;;;;;5058500;28;20205;-53
2021/04/22 00:30:29;;;;;;;9.20;8.20;;;9.70;99.90;;;;;;5073814;28;20179;-54
2021/04/22 00:32:54;;;;;;;9.53;8.53;;;9.70;99.90;;;;;;5054747;28;20186;-53
2021/04/22 00:35:20;;;;;;;10.43;9.17;;;9.80;99.90;;;;;;5074715;28;20534;-57
2021/04/22 00:37:46;;;;;;;9.77;8.57;;;9.70;99.90;;;;;;5062343;28;20254;-55
2021/04/22 00:40:15;;;;;;;8.90;8.00;;;9.80;99.90;;;;;;5055322;28;20171;-52
2021/04/22 00:42:40;;;;;;;9.30;8.23;;;9.70;99.90;;;;;;5065844;28;20251;-52
2021/04/22 00:45:07;;;;;;;11.27;8.73;;;9.70;99.90;;;;;;5055003;28;20254;-50
2021/04/22 00:47:32;;;;;;;9.40;8.40;;;9.70;99.90;;;;;;5065407;28;20190;-48
2021/04/22 00:49:58;;;;;;;11.60;8.83;;;9.70;99.90;;;;;;5074111;28;20185;-51
2021/04/22 00:52:24;;;;;;;9.77;8.50;;;9.70;99.90;;;;;;5074366;28;20174;-56
2021/04/22 00:54:49;;;;;;;11.43;9.60;;;9.80;99.90;;;;;;5073993;28;20573;-57
2021/04/22 00:57:15;;;;;;;12.97;11.60;;;9.80;99.90;;;;;;5058038;28;20540;-51
2021/04/22 00:59:41;;;;;;;13.40;12.00;;;9.70;99.90;;;;;;5074779;28;20190;-53
2021/04/22 01:02:14;;;;;;;12.23;10.97;;;9.70;99.90;;;;;;5072314;28;20182;-50
2021/04/22 01:04:40;;;;;;;10.33;9.33;;;9.70;99.90;;;;;;5074046;28;20198;-49
2021/04/22 01:07:05;;;;;;;9.77;8.77;;;9.70;99.90;;;;;;5073370;28;20206;-56
2021/04/22 01:09:31;;;;;;;10.57;9.47;;;9.60;99.90;;;;;;5072746;28;20650;-51
2021/04/22 01:11:58;;;;;;;11.07;9.27;;;9.70;99.90;;;;;;5061118;28;20179;-57
2021/04/22 01:14:24;;;;;;;9.07;8.27;;;9.70;99.90;;;;;;5066168;28;20174;-51
2021/04/22 01:16:50;;;;;;;9.83;8.83;;;9.70;99.90;;;;;;5073809;28;20220;-53
2021/04/22 01:19:16;;;;;;;10.03;9.03;;;9.80;99.90;;;;;;5057705;28;20639;-52
2021/04/22 01:21:42;;;;;;;9.93;8.93;;;9.70;99.90;;;;;;5053609;28;20191;-51
2021/04/22 01:24:09;;;;;;;10.33;9.23;;;9.80;99.90;;;;;;5054794;28;20203;-52
2021/04/22 01:26:35;;;;;;;12.43;9.63;;;9.80;99.90;;;;;;5072132;28;20284;-57
2021/04/22 01:29:00;;;;;;;12.87;11.23;;;9.80;99.90;;;;;;5072303;28;20262;-55
2021/04/22 01:31:27;;;;;;;11.67;10.47;;;9.80;99.90;;;;;;5073986;28;20526;-53
2021/04/22 01:34:03;;;;;;;13.97;11.33;;;9.80;99.90;;;;;;5056564;28;20183;-48
2021/04/22 01:36:39;;;;;;;13.43;11.80;;;10.90;99.90;;;;;;5053357;28;20193;-48
2021/04/22 01:39:07;;;;;;;15.97;12.67;;;9.80;99.90;;;;;;5053633;28;20718;-55
2021/04/22 01:41:33;;;;;;;13.70;12.27;;;9.80;99.90;;;;;;5071735;28;20186;-52
2021/04/22 01:43:58;;;;;;;15.13;13.53;;;9.80;99.90;;;;;;5061801;28;20268;-48
2021/04/22 01:46:24;;;;;;;15.13;13.13;;;9.80;99.90;;;;;;5053816;28;20202;-55
2021/04/22 01:48:50;;;;;;;15.13;13.30;;;9.70;99.90;;;;;;5054594;28;20175;-50
2021/04/22 01:51:16;;;;;;;14.20;12.80;;;9.70;99.90;;;;;;5054761;28;20519;-56
2021/04/22 01:53:42;;;;;;;13.50;12.07;;;9.70;99.90;;;;;;5055752;28;20216;-56
2021/04/22 01:56:08;;;;;;;13.63;12.23;;;9.70;99.90;;;;;;5073616;28;20253;-56
2021/04/22 01:58:34;;;;;;;15.63;14.03;;;9.80;99.90;;;;;;5057983;28;20179;-57
2021/04/22 02:01:00;;;;;;;13.63;11.97;;;9.80;99.90;;;;;;5059387;28;20190;-57
2021/04/22 02:03:33;;;;;;;11.30;10.10;;;9.80;99.90;;;;;;5073959;28;20210;-58
2021/04/22 02:06:04;;;;;;;12.10;10.80;;;9.80;99.90;;;;;;5067502;28;20700;-50
2021/04/22 02:08:30;;;;;;;10.30;9.17;;;9.80;99.90;;;;;;5067902;28;20209;-54
2021/04/22 02:10:56;;;;;;;10.83;9.73;;;9.70;99.90;;;;;;5067232;28;20203;-52
2021/04/22 02:13:23;;;;;;;9.90;8.87;;;9.70;99.90;;;;;;5053747;28;20228;-54
2021/04/22 02:15:49;;;;;;;10.83;9.80;;;9.60;99.90;;;;;;5036584;28;20203;-49
2021/04/22 02:18:15;;;;;;;10.70;9.60;;;9.60;99.90;;;;;;5058294;28;20224;-55
2021/04/22 02:20:41;;;;;;;11.27;9.57;;;9.60;99.90;;;;;;5057532;28;20179;-57
2021/04/22 02:23:08;;;;;;;11.80;9.53;;;11.60;99.90;;;;;;5067323;28;20287;-54
2021/04/22 02:25:34;;;;;;;10.13;9.13;;;9.50;99.90;;;;;;5077015;28;20201;-50
2021/04/22 02:28:01;;;;;;;10.80;9.70;;;9.50;99.90;;;;;;5058207;28;20643;-48
2021/04/22 02:30:31;;;;;;;10.33;9.27;;;9.50;99.90;;;;;;5060316;28;20174;-49
2021/04/22 02:32:59;;;;;;;10.27;9.17;;;9.40;99.90;;;;;;5077034;28;20223;-56
2021/04/22 02:35:28;;;;;;;10.73;9.23;;;9.40;99.90;;;;;;5075116;28;20594;-56
2021/04/22 02:37:55;;;;;;;10.50;9.40;;;9.30;99.90;;;;;;5076542;28;20210;-53
2021/04/22 02:40:27;;;;;;;10.63;8.57;;;9.40;99.90;;;;;;5058270;28;20183;-54
2021/04/22 02:42:55;;;;;;;9.90;8.90;;;9.30;99.90;;;;;;5062822;28;20210;-57
2021/04/22 02:45:26;;;;;;;10.53;8.63;;;9.20;99.90;;;;;;5077219;28;20170;-48
2021/04/22 02:47:52;;;;;;;9.77;8.77;;;9.00;99.90;;;;;;5074901;28;20635;-56
2021/04/22 02:50:20;;;;;;;11.37;9.80;;;9.00;99.90;;;;;;5070606;28;20237;-52
2021/04/22 02:52:46;;;;;;;11.40;10.20;;;9.00;99.90;;;;;;5061792;28;20511;-50
2021/04/22 02:55:12;;;;;;;11.73;10.60;;;8.90;99.90;;;;;;5076607;28;20645;-48
2021/04/22 02:57:38;;;;;;;11.33;10.13;;;8.90;99.90;;;;;;5074447;28;20196;-56
2021/04/22 03:00:06;;;;;;;11.33;10.13;;;8.80;99.90;;;;;;5076049;28;20205;-53
2021/04/22 03:02:32;;;;;;;11.37;9.93;;;8.80;99.90;;;;;;5075859;28;20194;-57
2021/04/22 03:04:58;;;;;;;11.70;10.40;;;8.70;99.90;;;;;;5072235;28;20213;-54
2021/04/22 03:07:23;;;;;;;12.77;11.07;;;8.70;99.90;;;;;;5057658;28;20203;-49
2021/04/22 03:09:49;;;;;;;14.13;12.00;;;8.60;99.90;;;;;;5056551;28;20232;-55
2021/04/22 03:12:14;;;;;;;13.67;12.37;;;8.60;99.90;;;;;;5057160;28;20179;-52
2021/04/22 03:14:40;;;;;;;14.23;12.00;;;8.60;99.90;;;;;;5057314;28;20266;-52
2021/04/22 03:17:05;;;;;;;12.73;11.43;;;8.60;99.90;;;;;;5057428;28;20210;-52
2021/04/22 03:19:31;;;;;;;10.33;9.23;;;8.60;99.90;;;;;;5056806;28;20183;-48
2021/04/22 03:21:57;;;;;;;12.17;10.17;;;8.40;99.90;;;;;;5062428;28;20534;-49
2021/04/22 03:24:22;;;;;;;12.00;10.80;;;8.30;99.90;;;;;;5076181;28;20202;-56
2021/04/22 03:26:48;;;;;;;11.17;10.03;;;8.30;99.90;;;;;;5070572;28;20203;-53
2021/04/22 03:29:14;;;;;;;10.30;9.30;;;8.40;99.90;;;;;;5074661;28;20182;-52
2021/04/22 03:31:39;;;;;;;11.93;10.43;;;8.50;99.90;;;;;;5074398;28;20683;-54
2021/04/22 03:34:05;;;;;;;11.67;10.47;;;8.50;99.90;;;;;;5075719;28;20182;-50
2021/04/22 03:36:30;;;;;;;11.43;10.33;;;8.50;99.90;;;;;;5057889;28;20298;-49
2021/04/22 03:38:56;;;;;;;10.23;9.20;;;8.50;99.90;;;;;;5056997;28;20256;-57
2021/04/22 03:41:22;;;;;;;10.73;9.63;;;8.60;99.90;;;;;;5059408;28;20240;-55
2021/04/22 03:43:48;;;;;;;10.23;9.10;;;8.70;99.90;;;;;;5076137;28;20661;-57
2021/04/22 03:46:14;;;;;;;11.50;10.40;;;8.70;99.90;;;;;;5072878;28;20207;-52
2021/04/22 03:48:40;;;;;;;12.00;10.53;;;8.70;99.90;;;;;;5055762;28;20190;-48
2021/04/22 03:51:05;;;;;;;12.47;10.80;;;8.70;99.90;;;;;;5055756;28;20175;-54
2021/04/22 03:53:31;;;;;;;11.47;10.37;;;8.70;99.90;;;;;;5075581;28;20174;-48
2021/04/22 03:55:56;;;;;;;11.30;10.10;;;8.60;99.90;;;;;;5068980;28;20210;-56
2021/04/22 03:58:22;;;;;;;10.93;9.87;;;8.70;99.90;;;;;;5060641;28;20187;-53
2021/04/22 04:00:48;;;;;;;11.87;10.50;;;8.60;99.90;;;;;;5055080;28;20651;-57
2021/04/22 04:03:13;;;;;;;11.17;9.97;;;8.60;99.90;;;;;;5068313;28;20233;-54
2021/04/22 04:05:39;;;;;;;10.50;9.40;;;8.60;99.90;;;;;;5075191;28;20201;-57
2021/04/22 04:08:05;;;;;;;10.33;9.27;;;8.60;99.90;;;;;;5069028;28;20674;-54
2021/04/22 04:10:31;;;;;;;9.90;8.67;;;8.60;99.90;;;;;;5060282;28;20265;-48
2021/04/22 04:12:57;;;;;;;10.13;9.13;;;8.50;99.90;;;;;;5075426;28;20617;-52
2021/04/22 04:15:22;;;;;;;10.93;9.87;;;8.50;99.90;;;;;;5071412;28;20274;-57
2021/04/22 04:17:48;;;;;;;11.10;9.77;;;8.50;99.90;;;;;;5062116;28;20269;-57
2021/04/22 04:20:14;;;;;;;12.30;10.00;;;8.50;99.90;;;;;;5071627;28;20202;-49
2021/04/22 04:22:41;;;;;;;11.57;10.10;;;8.60;99.90;;;;;;5070123;28;20535;-48
2021/04/22 04:25:09;;;;;;;11.97;10.30;;;8.70;99.90;;;;;;5075038;28;20214;-49
2021/04/22 04:27:35;;;;;;;10.87;9.70;;;8.70;99.90;;;;;;5073126;28;20654;-51
2021/04/22 04:30:00;;;;;;;10.53;9.37;;;8.70;99.90;;;;;;5070227;28;20206;-51
2021/04/22 04:32:26;;;;;;;10.70;9.60;;;9.20;99.90;;;;;;5060644;28;20214;-54
2021/04/22 04:34:52;;;;;;;10.87;9.57;;;8.70;99.90;;;;;;5046662;28;20174;-55
2021/04/22 04:37:18;;;;;;;11.33;9.07;;;8.80;99.90;;;;;;5061408;28;20298;-52
2021/04/22 04:39:43;;;;;;;9.70;8.73;;;8.70;99.90;;;;;;5073141;28;20273;-52
2021/04/22 04:42:09;;;;;;;9.73;8.73;;;8.80;99.90;;;;;;5054446;28;20183;-52
2021/04/22 04:44:35;;;;;;;10.00;8.60;;;8.80;99.90;;;;;;5069806;28;20264;-51
2021/04/22 04:47:01;;;;;;;9.73;8.83;;;8.70;99.90;;;;;;5062091;28;20194;-48
2021/04/22 04:49:27;;;;;;;10.67;9.13;;;8.70;99.90;;;;;;5063363;28;20182;-50
2021/04/22 04:51:52;;;;;;;11.90;8.97;;;8.70;99.90;;;;;;5065443;28;20224;-55
2021/04/22 04:54:18;;;;;;;9.67;8.20;;;8.80;99.90;;;;;;5049961;28;20210;-54
2021/04/22 04:56:44;;;;;;;10.40;8.90;;;8.90;99.90;;;;;;5054200;28;20199;-57
2021/04/22 04:59:09;;;;;;;11.00;9.77;;;8.90;99.90;;;;;;5067197;28;20178;-57
2021/04/22 05:01:35;;;;;;;11.83;10.63;;;9.00;99.90;;;;;;5064441;28;20264;-52
2021/04/22 05:04:00;;;;;;;12.37;11.00;;;9.10;99.90;;;;;;5064136;28;20256;-56
2021/04/22 05:06:26;;;;;;;13.57;10.83;;;9.10;99.90;;;;;;5062952;28;20273;-56
2021/04/22 05:08:52;;;;;;;13.83;12.20;;;9.20;99.90;;;;;;5063810;28;20246;-54
2021/04/22 05:11:18;;;;;;;12.03;10.73;;;9.30;99.90;;;;;;5069780;28;20178;-59
2021/04/22 05:13:44;;;;;;;10.73;9.63;;;9.30;99.90;;;;;;5071700;28;20194;-52
2021/04/22 05:16:09;;;;;;;11.30;9.83;;;9.20;99.90;;;;;;5066141;28;20194;-54
2021/04/22 05:18:35;;;;;;;10.73;9.60;;;9.20;99.90;;;;;;5056464;28;20222;-49
2021/04/22 05:21:01;;;;;;;10.53;9.37;;;9.30;99.90;;;;;;5062577;28;20185;-48
2021/04/22 05:23:26;;;;;;;12.93;11.57;;;9.30;99.90;;;;;;5068430;28;20280;-51
2021/04/22 05:25:54;;;;;;;14.67;11.93;;;9.10;99.90;;;;;;5084569;28;20194;-56
2021/04/22 05:28:20;;;;;;;13.70;12.03;;;9.00;99.90;;;;;;5066864;28;20243;-57
2021/04/22 05:30:46;;;;;;;12.93;11.60;;;8.80;99.90;;;;;;5056741;28;20179;-53
2021/04/22 05:33:12;;;;;;;13.83;12.20;;;8.60;99.90;;;;;;5072841;28;20253;-51
2021/04/22 05:35:38;;;;;;;11.73;10.57;;;8.60;99.90;;;;;;5073595;28;20230;-51
2021/04/22 05:38:05;;;;;;;13.77;10.93;;;8.50;99.90;;;;;;5068647;28;20229;-48
2021/04/22 05:40:31;;;;;;;12.20;10.43;;;8.50;99.90;;;;;;5058115;28;20178;-51
2021/04/22 05:42:57;;;;;;;11.75;10.55;;;8.60;99.90;;;;;;5056006;28;20763;-51
2021/04/22 05:45:22;;;;;;;12.13;10.60;;;8.70;99.90;;;;;;5057409;28;20672;-52
2021/04/22 05:47:48;;;;;;;11.40;10.20;;;8.80;99.90;;;;;;5054511;28;20175;-56
2021/04/22 05:50:15;;;;;;;11.70;10.43;;;8.90;99.90;;;;;;5054495;28;20175;-47
2021/04/22 05:52:41;;;;;;;12.00;10.10;;;9.10;99.90;;;;;;5071162;28;20177;-52
2021/04/22 05:55:08;;;;;;;11.53;10.30;;;9.30;99.90;;;;;;5077691;28;20170;-48
2021/04/22 05:57:34;;;;;;;11.53;10.33;;;9.50;99.90;;;;;;5075341;28;20195;-49
2021/04/22 06:00:00;;;;;;;11.57;10.33;;;9.60;99.90;;;;;;5067706;28;20182;-59
2021/04/22 06:02:25;;;;;;;13.07;11.70;;;9.60;99.90;;;;;;5065882;28;20258;-48
2021/04/22 06:04:51;;;;;;;15.23;12.50;;;9.60;99.90;;;;;;5053607;28;20206;-56
2021/04/22 06:07:17;;;;;;;15.37;12.50;;;9.70;99.90;;;;;;5072534;28;20191;-47
2021/04/22 06:09:42;;;;;;;14.17;12.77;;;9.80;99.90;;;;;;5057199;28;20167;-48
2021/04/22 06:12:09;;;;;;;12.60;11.30;;;9.80;99.90;;;;;;5056643;28;20180;-49
2021/04/22 06:14:34;;;;;;;16.83;13.60;;;9.90;99.90;;;;;;5061083;28;20239;-55
2021/04/22 06:17:00;;;;;;;12.37;11.17;;;9.80;99.90;;;;;;5059996;28;20214;-48
2021/04/22 06:19:26;;;;;;;15.57;13.97;;;9.90;99.90;;;;;;5068478;28;20182;-52
2021/04/22 06:21:51;;;;;;;15.27;13.23;;;12.90;99.90;;;;;;5076619;28;20182;-48
2021/04/22 06:24:17;;;;;;;15.77;14.17;;;9.90;99.90;;;;;;5070660;28;20216;-56
2021/04/22 06:26:44;;;;;;;16.27;14.60;;;9.80;99.90;;;;;;5076684;28;20194;-53
2021/04/22 06:29:10;;;;;;;16.10;14.50;;;9.70;99.90;;;;;;5075852;28;20916;-53
2021/04/22 06:31:36;;;;;;;16.43;14.83;;;9.80;99.90;;;;;;5073636;28;20650;-50
2021/04/22 06:34:02;;;;;;;15.10;13.60;;;9.90;99.90;;;;;;5057026;28;20174;-47
2021/04/22 06:36:27;;;;;;;15.73;14.13;;;10.00;99.90;;;;;;5058037;28;20230;-53
2021/04/22 06:38:53;;;;;;;15.67;14.07;;;10.10;99.90;;;;;;5063871;28;20277;-58
2021/04/22 06:41:19;;;;;;;15.13;13.53;;;10.20;99.90;;;;;;5075586;28;20194;-53
2021/04/22 06:43:45;;;;;;;16.37;14.73;;;10.30;99.90;;;;;;5078177;28;20198;-56
2021/04/22 06:46:11;;;;;;;17.83;15.93;;;10.30;99.90;;;;;;5096382;28;20197;-52
2021/04/22 06:48:37;;;;;;;18.57;16.57;;;10.40;99.90;;;;;;5092322;28;20173;-50
2021/04/22 06:51:04;;;;;;;17.70;15.73;;;10.50;99.90;;;;;;5056344;28;20261;-57
2021/04/22 06:53:29;;;;;;;16.00;14.40;;;10.70;99.90;;;;;;5056531;28;20494;-49
2021/04/22 06:55:55;;;;;;;16.93;15.17;;;10.70;99.90;;;;;;5054962;28;20690;-47
2021/04/22 06:58:20;;;;;;;17.00;15.20;;;10.70;99.90;;;;;;5038975;28;20703;-48
2021/04/22 07:00:46;;;;;;;17.40;15.43;;;10.60;99.90;;;;;;5055620;28;20175;-52
2021/04/22 07:03:11;;;;;;;17.37;15.53;;;10.60;99.90;;;;;;5055536;28;20554;-56
2021/04/22 07:05:37;;;;;;;18.50;16.63;;;10.60;99.90;;;;;;5056144;28;20198;-55
2021/04/22 07:08:04;;;;;;;18.87;16.83;;;10.70;99.90;;;;;;5055643;28;20627;-57
2021/04/22 07:10:30;;;;;;;18.97;17.07;;;10.80;99.90;;;;;;5055677;28;20174;-47
2021/04/22 07:12:56;;;;;;;20.63;16.50;;;10.60;99.90;;;;;;5056458;28;20171;-48
2021/04/22 07:15:22;;;;;;;18.00;14.87;;;10.30;99.90;;;;;;5055159;28;20179;-57
2021/04/22 07:17:47;;;;;;;17.60;15.67;;;10.10;99.90;;;;;;5056409;28;20175;-53
2021/04/22 07:20:17;;;;;;;18.67;15.47;;;10.20;99.90;;;;;;5055329;28;20178;-50
2021/04/22 07:22:43;;;;;;;17.33;14.83;;;10.40;99.90;;;;;;5091074;28;20162;-51
2021/04/22 07:25:11;;;;;;;18.13;16.20;;;10.40;99.90;;;;;;5063179;28;20201;-51
2021/04/22 07:27:37;;;;;;;17.03;15.07;;;10.50;99.90;;;;;;5079056;28;20200;-52
2021/04/22 07:30:05;;;;;;;17.30;15.60;;;10.40;99.90;;;;;;5092436;28;20170;-48
2021/04/22 07:32:31;;;;;;;18.20;15.67;;;10.40;99.90;;;;;;5077048;28;20209;-55
2021/04/22 07:34:57;;;;;;;16.63;14.97;;;10.50;99.90;;;;;;5075260;28;20182;-46
2021/04/22 07:37:22;;;;;;;16.60;14.83;;;10.50;99.90;;;;;;5075206;28;20202;-52
2021/04/22 07:39:48;;;;;;;15.90;14.30;;;10.60;99.90;;;;;;5087316;28;20251;-47
2021/04/22 07:42:13;;;;;;;15.70;14.00;;;10.60;99.90;;;;;;5095366;28;20178;-47
2021/04/22 07:44:39;;;;;;;16.23;14.40;;;10.60;99.90;;;;;;5094809;28;20205;-52
2021/04/22 07:47:06;;;;;;;16.23;14.53;;;10.70;99.90;;;;;;5095866;28;20190;-48
2021/04/22 07:49:32;;;;;;;16.80;14.70;;;11.40;99.90;;;;;;5096213;28;20178;-53
2021/04/22 07:51:58;;;;;;;17.43;15.60;;;11.70;99.90;;;;;;5080722;28;20204;-46
2021/04/22 07:54:23;;;;;;;17.00;15.30;;;10.80;99.90;;;;;;5075701;28;20182;-45
2021/04/22 07:56:49;;;;;;;17.67;15.53;;;10.90;99.90;;;;;;5075507;28;20198;-45
2021/04/22 07:59:15;;;;;;;18.47;16.13;;;11.00;99.90;;;;;;5075724;28;20178;-45
2021/04/22 08:01:40;;;;;;;17.07;15.27;;;11.10;99.90;;;;;;5075368;28;20174;-56
2021/04/22 08:04:06;;;;;;;17.90;14.97;;;11.20;99.90;;;;;;5075594;28;20285;-56
2021/04/22 08:06:33;;;;;;;18.20;16.30;;;11.30;99.90;;;;;;5074858;28;20191;-56
2021/04/22 08:09:00;;;;;;;17.53;15.73;;;11.40;99.90;;;;;;5094937;28;20232;-56
2021/04/22 08:11:26;;;;;;;16.67;15.07;;;11.50;99.90;;;;;;5095380;28;20197;-46
2021/04/22 08:13:51;;;;;;;17.67;15.87;;;11.50;99.90;;;;;;5094309;28;20209;-46
2021/04/22 08:16:17;;;;;;;16.90;15.07;;;11.70;99.90;;;;;;5094179;28;20198;-51
2021/04/22 08:18:43;;;;;;;16.13;14.43;;;11.90;99.90;;;;;;5093801;28;20182;-45
2021/04/22 08:21:09;;;;;;;18.17;15.50;;;12.00;99.90;;;;;;5094864;28;20723;-55
2021/04/22 08:23:35;;;;;;;17.10;15.27;;;12.00;99.90;;;;;;5095034;28;20235;-55
2021/04/22 08:26:07;;;;;;;17.57;15.40;;;12.10;99.90;;;;;;5095594;28;20255;-57
2021/04/22 08:28:34;;;;;;;19.03;16.27;;;12.20;99.90;;;;;;5077214;28;20166;-57
2021/04/22 08:31:20;;;;;;;18.40;16.40;;;12.20;99.90;;;;;;5092523;28;20231;-53
2021/04/22 08:33:47;;;;;;;17.73;15.93;;;12.00;99.90;;;;;;5054822;28;20254;-55
2021/04/22 08:36:13;;;;;;;18.83;16.40;;;11.90;99.90;;;;;;5054550;28;20214;-49
2021/04/22 08:38:39;;;;;;;18.90;16.97;;;12.10;99.90;;;;;;5054562;28;20700;-51
2021/04/22 08:41:04;;;;;;;17.43;15.50;;;12.10;99.90;;;;;;5054801;28;20183;-52
2021/04/22 08:43:31;;;;;;;17.67;15.77;;;12.20;99.90;;;;;;5036649;28;20237;-46
2021/04/22 08:45:57;;;;;;;17.40;15.70;;;12.30;99.90;;;;;;5060329;28;20205;-54
2021/04/22 08:48:23;;;;;;;18.87;16.90;;;12.30;99.90;;;;;;5090233;28;20181;-56
2021/04/22 08:50:50;;;;;;;17.60;15.77;;;12.30;99.90;;;;;;5094268;28;20316;-46
2021/04/22 08:53:29;;;;;;;17.47;15.57;;;13.00;99.90;;;;;;5094000;28;20185;-54
2021/04/22 08:55:55;;;;;;;17.50;15.60;;;12.50;99.90;;;;;;5086724;28;20665;-55
2021/04/22 08:58:21;;;;;;;18.03;16.23;;;12.80;99.90;;;;;;5074269;28;20179;-53
2021/04/22 09:01:03;;;;;;;18.13;16.23;;;12.90;99.90;;;;;;5074875;28;20187;-55
2021/04/22 09:03:29;;;;;;;16.37;14.73;;;13.20;99.90;;;;;;5074373;28;20191;-49
2021/04/22 09:05:55;;;;;;;16.47;14.83;;;13.40;99.90;;;;;;5074254;28;20270;-57
2021/04/22 09:08:31;;;;;;;16.90;14.97;;;13.50;99.90;;;;;;5074522;28;20228;-57
2021/04/22 09:10:57;;;;;;;16.00;14.40;;;13.80;99.90;;;;;;5073700;28;20191;-51
2021/04/22 09:13:22;;;;;;;15.90;14.30;;;13.90;99.90;;;;;;5073305;28;20235;-56
2021/04/22 09:15:49;;;;;;;16.40;14.70;;;13.90;99.90;;;;;;5073994;28;20225;-56
2021/04/22 09:18:16;;;;;;;16.47;14.87;;;13.80;99.90;;;;;;5073515;28;20233;-57
2021/04/22 09:20:45;;;;;;;16.07;14.47;;;13.60;99.90;;;;;;5074196;28;20181;-48
2021/04/22 09:23:22;;;;;;;16.97;15.27;;;13.50;99.90;;;;;;5073177;28;20283;-57
2021/04/22 09:26:01;;;;;;;15.33;13.83;;;13.60;99.90;;;;;;5073402;28;20251;-55
2021/04/22 09:28:43;;;;;;;15.47;13.97;;;14.10;99.90;;;;;;5073020;28;20265;-50
2021/04/22 09:31:11;;;;;;;15.70;14.07;;;13.90;99.90;;;;;;5073437;28;20632;-57
2021/04/22 09:33:38;;;;;;;16.33;14.67;;;13.70;99.90;;;;;;5073271;28;20189;-55
2021/04/22 09:36:05;;;;;;;15.27;13.77;;;13.80;99.90;;;;;;5073995;28;20198;-47
2021/04/22 09:38:31;;;;;;;15.67;13.47;;;14.10;99.90;;;;;;5073459;28;20503;-48
2021/04/22 09:41:07;;;;;;;15.83;14.07;;;14.50;99.90;;;;;;5073300;28;20657;-51
2021/04/22 09:43:33;;;;;;;16.37;14.77;;;14.70;99.90;;;;;;5054923;28;20201;-54
2021/04/22 09:45:58;;;;;;;15.60;14.10;;;15.20;99.90;;;;;;5073372;28;20256;-48
2021/04/22 09:48:30;;;;;;;15.30;13.80;;;14.40;99.90;;;;;;5073012;28;20166;-49
2021/04/22 09:50:58;;;;;;;16.70;14.17;;;14.40;99.90;;;;;;5073068;28;20588;-52
2021/04/22 09:53:26;;;;;;;16.23;14.47;;;14.30;99.90;;;;;;5073119;28;20621;-48
2021/04/22 09:55:56;;;;;;;18.50;14.00;;;14.10;99.90;;;;;;5073354;28;20206;-55
2021/04/22 09:58:28;;;;;;;15.83;14.17;;;14.20;99.90;;;;;;5073243;28;20508;-52
2021/04/22 10:00:55;;;;;;;15.60;14.00;;;14.20;99.90;;;;;;5073516;28;20306;-48
2021/04/22 10:03:20;;;;;;;18.37;15.37;;;13.90;99.90;;;;;;5072733;28;20208;-48
2021/04/22 10:06:04;;;;;;;15.97;14.37;;;13.70;99.90;;;;;;5073093;28;20220;-46
2021/04/22 10:08:30;;;;;;;17.20;15.30;;;13.70;99.90;;;;;;5072717;28;20634;-46
2021/04/22 10:11:05;;;;;;;16.57;14.90;;;13.70;99.90;;;;;;5072872;28;20189;-47
2021/04/22 10:13:46;;;;;;;17.10;15.40;;;13.80;99.90;;;;;;5071805;28;20197;-48
2021/04/22 10:16:12;;;;;;;16.30;14.70;;;13.90;99.90;;;;;;5073409;28;20208;-46
2021/04/22 10:18:38;;;;;;;17.57;15.77;;;14.00;99.90;;;;;;5072247;28;20185;-46
2021/04/22 10:21:05;;;;;;;16.63;14.93;;;14.00;99.90;;;;;;5072830;28;20268;-46
2021/04/22 10:23:31;;;;;;;16.57;14.83;;;14.00;99.90;;;;;;5073428;28;20236;-55
2021/04/22 10:25:57;;;;;;;19.33;17.40;;;13.80;99.90;;;;;;5073200;28;20275;-46
2021/04/22 10:28:23;;;;;;;18.67;15.20;;;13.70;99.90;;;;;;5069950;28;20274;-54
2021/04/22 10:30:51;;;;;;;18.27;15.70;;;13.60;99.90;;;;;;5072831;28;20194;-48
2021/04/22 10:33:18;;;;;;;18.00;15.20;;;13.30;99.90;;;;;;5072617;28;20192;-48
2021/04/22 10:35:45;;;;;;;16.80;15.20;;;13.40;99.90;;;;;;5072522;28;20334;-50
2021/04/22 10:38:12;;;;;;;17.07;15.37;;;13.70;99.90;;;;;;5075787;28;20194;-49
2021/04/22 10:40:41;;;;;;;17.13;15.40;;;14.00;99.90;;;;;;5076625;28;20170;-46
2021/04/22 10:43:09;;;;;;;16.57;14.87;;;14.00;99.90;;;;;;5095524;28;20371;-52
2021/04/22 10:45:37;;;;;;;16.97;15.00;;;14.20;99.90;;;;;;5095670;28;20507;-57
2021/04/22 10:48:04;;;;;;;16.43;14.73;;;14.40;99.90;;;;;;5085210;28;20183;-45
2021/04/22 10:50:35;;;;;;;15.33;13.83;;;14.70;99.90;;;;;;5056174;28;20187;-45
2021/04/22 10:53:05;;;;;;;18.57;16.67;;;14.90;99.90;;;;;;5055661;28;20167;-49
2021/04/22 10:55:33;;;;;;;41.70;35.40;;;15.10;99.90;;;;;;5056068;28;20170;-56
2021/04/22 10:58:19;;;;;;;15.30;13.67;;;15.50;99.90;;;;;;5055790;28;20207;-46
2021/04/22 11:00:54;;;;;;;14.27;12.77;;;15.60;99.90;;;;;;5056414;28;20171;-47
2021/04/22 11:03:31;;;;;;;14.87;13.30;;;16.00;99.90;;;;;;5055681;28;20180;-55
2021/04/22 11:06:23;;;;;;;14.47;12.97;;;16.30;99.90;;;;;;5054952;28;20287;-57
2021/04/22 11:08:51;;;;;;;14.33;12.37;;;16.50;99.90;;;;;;5045220;28;20193;-55
2021/04/22 11:11:18;;;;;;;13.63;12.20;;;16.30;99.90;;;;;;5055231;28;20175;-48
2021/04/22 11:13:45;;;;;;;14.17;12.80;;;16.40;99.90;;;;;;5056190;28;20229;-46
2021/04/22 11:16:11;;;;;;;15.57;13.63;;;16.50;99.90;;;;;;5054973;28;20211;-50
2021/04/22 11:18:41;;;;;;;15.87;13.10;;;16.00;99.90;;;;;;5055846;28;20244;-52
2021/04/22 11:21:19;;;;;;;15.07;13.53;;;15.80;99.90;;;;;;5055256;28;20283;-46
2021/04/22 11:23:46;;;;;;;16.03;13.80;;;15.50;99.90;;;;;;5055179;28;20195;-50
2021/04/22 11:26:18;;;;;;;13.87;12.47;;;15.50;99.90;;;;;;5055561;28;20206;-52
2021/04/22 11:28:44;;;;;;;12.90;11.70;;;15.20;99.90;;;;;;5055758;28;20164;-53
2021/04/22 11:31:12;;;;;;;13.80;12.23;;;15.30;99.90;;;;;;5055154;28;20210;-54
2021/04/22 11:33:40;;;;;;;12.83;11.53;;;15.60;99.90;;;;;;5055706;28;20602;-56
2021/04/22 11:36:23;;;;;;;14.77;12.93;;;15.60;99.90;;;;;;5063226;28;20285;-52
2021/04/22 11:38:58;;;;;;;14.17;12.67;;;15.40;99.90;;;;;;5065228;28;20198;-49
2021/04/22 11:41:30;;;;;;;11.87;10.30;;;15.20;99.90;;;;;;5054890;28;20163;-46
2021/04/22 11:44:12;;;;;;;11.20;9.97;;;15.40;99.90;;;;;;5055699;28;20214;-46
2021/04/22 11:46:39;;;;;;;11.90;10.70;;;15.90;99.90;;;;;;5054834;28;20663;-48
2021/04/22 11:49:06;;;;;;;11.77;9.70;;;16.30;99.90;;;;;;5055407;28;20516;-55
2021/04/22 11:51:37;;;;;;;13.50;8.70;;;16.90;99.90;;;;;;5055118;28;20163;-47
2021/04/22 11:54:03;;;;;;;10.10;9.10;;;17.00;98.70;;;;;;5055324;28;20224;-50
2021/04/22 11:56:29;;;;;;;12.60;10.07;;;17.00;97.90;;;;;;5055675;28;20202;-46
2021/04/22 11:58:54;;;;;;;11.97;10.77;;;16.80;97.50;;;;;;5061187;28;21064;-51
2021/04/22 12:01:20;;;;;;;12.30;11.03;;;16.70;99.00;;;;;;5092462;28;20297;-53
2021/04/22 12:03:46;;;;;;;11.70;9.87;;;16.80;98.80;;;;;;5092946;28;20211;-56
2021/04/22 12:06:16;;;;;;;12.13;10.23;;;17.00;97.30;;;;;;5093443;28;20277;-57
2021/04/22 12:08:43;;;;;;;13.20;9.60;;;16.90;97.30;;;;;;5095031;28;20193;-57
2021/04/22 12:11:14;;;;;;;10.40;9.30;;;16.90;96.90;;;;;;5095046;28;20173;-48
2021/04/22 12:13:40;;;;;;;10.77;9.33;;;17.00;97.70;;;;;;5095625;28;20186;-47
2021/04/22 12:16:07;;;;;;;10.97;9.77;;;16.70;98.20;;;;;;5095862;28;20290;-54
2021/04/22 12:18:36;;;;;;;10.63;9.33;;;16.80;97.70;;;;;;5096016;28;20229;-53
2021/04/22 12:21:33;;;;;;;10.00;8.90;;;16.90;98.00;;;;;;5074242;28;20195;-46
2021/04/22 12:24:06;;;;;;;9.57;8.50;;;17.30;98.70;;;;;;5069850;28;20209;-46
2021/04/22 12:26:35;;;;;;;11.67;7.97;;;17.80;97.50;;;;;;5075014;28;20210;-48
2021/04/22 12:29:12;;;;;;;8.80;7.63;;;18.10;95.30;;;;;;5071785;28;20527;-57
2021/04/22 12:31:59;;;;;;;9.00;6.80;;;17.60;92.90;;;;;;5073145;28;20748;-46
2021/04/22 12:34:33;;;;;;;7.43;6.67;;;17.00;92.60;;;;;;5072164;28;20178;-47
2021/04/22 12:37:04;;;;;;;7.93;6.50;;;16.70;93.00;;;;;;5074207;28;20238;-57